Time;durP1;ratioP1;P1;durP2;ratioP2;P2;SDS_P1;SDS_P2;PMS_P1;PMS_P2;Temp;Humidity;BMP_temperature;BMP_pressure;BME280_temperature;BME280_humidity;BME280_pressure;Samples;Min_cycle;Max_cycle;Signal;HPM_P1;HPM_P2
2024/04/19 00:01:10;;;;;;;13.80;10.55;;;6.00;99.90;;;;;;5335013;26;20005;-79
2024/04/19 00:03:36;;;;;;;10.85;7.90;;;6.00;99.90;;;;;;5331093;26;20001;-81
2024/04/19 00:06:02;;;;;;;13.95;9.88;;;6.00;99.90;;;;;;5316243;26;20020;-82
2024/04/19 00:08:28;;;;;;;18.35;10.70;;;6.00;99.90;;;;;;5343471;26;20001;-81
2024/04/19 00:10:55;;;;;;;13.70;10.32;;;6.00;99.90;;;;;;5339861;26;20013;-79
2024/04/19 00:13:21;;;;;;;11.48;8.93;;;6.00;99.90;;;;;;5335326;26;20052;-79
2024/04/19 00:15:47;;;;;;;13.82;10.43;;;6.00;99.90;;;;;;5315310;26;20361;-80
2024/04/19 00:18:13;;;;;;;13.45;10.20;;;6.00;99.90;;;;;;5322049;26;20034;-80
2024/04/19 00:20:39;;;;;;;11.50;10.00;;;6.00;99.90;;;;;;5314572;26;19997;-79
2024/04/19 00:23:05;;;;;;;12.35;10.20;;;6.10;99.90;;;;;;5309455;27;19998;-78
2024/04/19 00:25:34;;;;;;;13.35;10.73;;;6.10;99.90;;;;;;5343620;26;20016;-79
2024/04/19 00:28:00;;;;;;;10.05;8.38;;;6.10;99.90;;;;;;5347216;26;20023;-78
2024/04/19 00:30:26;;;;;;;12.73;8.05;;;6.10;99.90;;;;;;5347541;26;20346;-80
2024/04/19 00:32:52;;;;;;;9.00;7.18;;;6.10;99.90;;;;;;5347918;26;20013;-80
2024/04/19 00:35:21;;;;;;;12.13;9.13;;;6.10;99.90;;;;;;5347465;26;20001;-80
2024/04/19 00:37:47;;;;;;;11.15;9.10;;;6.10;99.90;;;;;;5347344;26;20041;-79
2024/04/19 00:40:12;;;;;;;11.40;9.30;;;6.10;99.90;;;;;;5347224;26;20001;-80
2024/04/19 00:42:39;;;;;;;12.52;8.40;;;6.10;99.90;;;;;;5316413;26;20000;-78
2024/04/19 00:45:24;;;;;;;13.50;9.18;;;6.10;99.90;;;;;;5346564;26;20005;-79
2024/04/19 00:47:50;;;;;;;17.88;10.15;;;6.20;99.90;;;;;;5323080;26;20004;-80
2024/04/19 00:50:16;;;;;;;11.60;9.27;;;6.20;99.90;;;;;;5373177;26;20418;-79
2024/04/19 00:52:42;;;;;;;11.50;9.30;;;6.20;99.90;;;;;;5376374;26;20401;-78
2024/04/19 00:55:08;;;;;;;18.33;10.23;;;6.20;99.90;;;;;;5330503;26;20001;-79
2024/04/19 00:57:34;;;;;;;12.15;9.65;;;6.20;99.90;;;;;;5366909;26;20017;-80
2024/04/19 01:00:02;;;;;;;9.35;7.82;;;6.20;99.90;;;;;;5350277;26;20005;-80
2024/04/19 01:02:28;;;;;;;12.70;9.40;;;6.20;99.90;;;;;;5351533;26;20001;-80
2024/04/19 01:04:55;;;;;;;11.07;8.07;;;6.10;99.90;;;;;;5329546;26;20004;-80
2024/04/19 01:07:21;;;;;;;12.70;8.80;;;6.10;99.90;;;;;;5348922;26;20343;-79
2024/04/19 01:09:47;;;;;;;11.52;8.82;;;6.10;99.90;;;;;;5346844;26;20008;-79
2024/04/19 01:12:13;;;;;;;9.52;7.78;;;6.10;99.90;;;;;;5346841;26;20361;-80
2024/04/19 01:14:39;;;;;;;12.35;7.50;;;6.00;99.90;;;;;;5346775;26;20001;-80
2024/04/19 01:17:04;;;;;;;8.57;6.63;;;6.00;99.90;;;;;;5315998;26;20016;-81
2024/04/19 01:19:30;;;;;;;10.32;6.07;;;6.00;99.90;;;;;;5347355;26;20012;-81
2024/04/19 01:21:56;;;;;;;8.25;5.95;;;5.90;99.90;;;;;;5347330;26;20082;-81
2024/04/19 01:24:39;;;;;;;8.00;5.63;;;5.90;99.90;;;;;;5316571;26;20019;-80
2024/04/19 01:27:08;;;;;;;6.90;4.75;;;6.00;99.90;;;;;;5316422;26;20005;-82
2024/04/19 01:29:36;;;;;;;5.82;4.85;;;5.90;99.90;;;;;;5347714;26;20004;-82
2024/04/19 01:32:03;;;;;;;5.57;4.90;;;6.00;99.90;;;;;;5348096;26;20004;-81
2024/04/19 01:34:32;;;;;;;5.30;4.07;;;6.00;99.90;;;;;;5347029;26;20005;-81
2024/04/19 01:36:58;;;;;;;4.65;3.45;;;6.00;99.90;;;;;;5346142;26;20020;-81
2024/04/19 01:39:26;;;;;;;4.40;3.72;;;5.90;99.90;;;;;;5347027;26;20005;-81
2024/04/19 01:41:54;;;;;;;3.05;2.50;;;5.90;99.90;;;;;;5346787;26;20341;-80
2024/04/19 01:44:20;;;;;;;4.45;3.03;;;5.90;99.90;;;;;;5346794;26;20643;-80
2024/04/19 01:46:46;;;;;;;3.10;2.78;;;5.80;99.90;;;;;;5346789;26;20082;-80
2024/04/19 01:49:12;;;;;;;5.57;3.28;;;5.90;99.90;;;;;;5316566;26;20136;-81
2024/04/19 01:51:37;;;;;;;3.72;2.95;;;5.90;99.90;;;;;;5336025;26;20012;-81
2024/04/19 01:54:03;;;;;;;7.13;3.85;;;5.90;99.90;;;;;;5346325;26;20011;-81
2024/04/19 01:56:29;;;;;;;4.07;3.65;;;6.00;99.90;;;;;;5347065;26;20020;-80
2024/04/19 01:58:55;;;;;;;4.60;3.75;;;6.00;99.90;;;;;;5346438;26;20012;-81
2024/04/19 02:01:21;;;;;;;5.25;4.03;;;6.00;99.90;;;;;;5346513;26;20004;-82
2024/04/19 02:03:47;;;;;;;3.85;3.00;;;6.00;99.90;;;;;;5346368;26;20001;-80
2024/04/19 02:06:15;;;;;;;9.07;3.35;;;6.00;99.90;;;;;;5346435;26;19996;-80
2024/04/19 02:08:41;;;;;;;3.30;2.80;;;5.90;99.90;;;;;;5338113;26;20016;-80
2024/04/19 02:11:07;;;;;;;3.30;3.00;;;6.00;99.90;;;;;;5345954;26;20338;-81
2024/04/19 02:13:34;;;;;;;4.47;3.60;;;6.00;99.90;;;;;;5315653;26;20005;-80
2024/04/19 02:16:00;;;;;;;3.78;2.83;;;5.90;99.90;;;;;;5315002;26;20079;-80
2024/04/19 02:18:26;;;;;;;4.63;3.38;;;6.00;99.90;;;;;;5346557;26;20054;-81
2024/04/19 02:20:52;;;;;;;3.67;2.50;;;6.00;99.90;;;;;;5346717;26;20450;-81
2024/04/19 02:23:36;;;;;;;3.42;2.63;;;6.00;99.90;;;;;;5337380;26;20063;-81
2024/04/19 02:26:05;;;;;;;3.28;2.80;;;6.00;99.90;;;;;;5335378;26;20013;-80
2024/04/19 02:31:17;;;;;;;4.13;2.95;;;6.10;99.90;;;;;;5345655;26;20012;-81
2024/04/19 02:33:46;;;;;;;4.10;2.70;;;6.10;99.90;;;;;;5346011;26;20005;-80
2024/04/19 02:36:12;;;;;;;4.35;3.22;;;6.10;99.90;;;;;;5345981;26;20011;-81
2024/04/19 02:38:38;;;;;;;6.10;3.67;;;6.10;99.90;;;;;;5345365;26;20001;-80
2024/04/19 02:41:05;;;;;;;3.60;2.60;;;6.20;99.90;;;;;;5335079;26;20001;-80
2024/04/19 02:43:31;;;;;;;4.95;3.33;;;6.30;99.90;;;;;;5315447;26;20005;-82
2024/04/19 02:46:02;;;;;;;3.53;2.90;;;6.30;99.90;;;;;;5346513;26;20406;-80
2024/04/19 02:48:28;;;;;;;2.63;2.30;;;6.40;99.90;;;;;;5354927;26;20113;-80
2024/04/19 02:50:53;;;;;;;2.80;2.47;;;6.40;99.90;;;;;;5355325;26;20001;-79
2024/04/19 02:53:19;;;;;;;3.83;2.78;;;6.30;99.90;;;;;;5322111;26;19997;-80
2024/04/19 02:55:45;;;;;;;3.95;2.85;;;6.30;99.90;;;;;;5347686;26;20616;-80
2024/04/19 02:58:11;;;;;;;5.65;3.00;;;6.30;99.90;;;;;;5335478;26;19997;-81
2024/04/19 03:00:37;;;;;;;4.88;2.78;;;6.30;99.90;;;;;;5352656;26;20011;-80
2024/04/19 03:03:03;;;;;;;5.55;3.22;;;6.40;99.90;;;;;;5352616;26;20100;-80
2024/04/19 03:05:28;;;;;;;5.65;3.92;;;6.30;99.90;;;;;;5352288;26;19997;-80
2024/04/19 03:07:55;;;;;;;5.57;4.30;;;6.40;99.90;;;;;;5353270;26;20001;-77
2024/04/19 03:10:21;;;;;;;5.05;4.25;;;6.40;99.90;;;;;;5352905;26;20066;-79
2024/04/19 03:12:46;;;;;;;4.53;4.00;;;6.40;99.90;;;;;;5352360;26;19997;-81
2024/04/19 03:15:12;;;;;;;6.03;4.80;;;6.40;99.90;;;;;;5341804;26;20001;-80
2024/04/19 03:17:38;;;;;;;6.22;5.55;;;6.40;99.90;;;;;;5351961;26;20012;-80
2024/04/19 03:20:04;;;;;;;5.75;4.95;;;6.40;99.90;;;;;;5352554;26;20021;-80
2024/04/19 03:22:30;;;;;;;7.85;5.53;;;6.50;99.90;;;;;;5353071;26;20423;-80
2024/04/19 03:24:56;;;;;;;6.20;5.60;;;6.50;99.90;;;;;;5322308;26;20012;-81
2024/04/19 03:27:22;;;;;;;10.32;7.75;;;6.50;99.90;;;;;;5352860;26;20322;-81
2024/04/19 03:29:55;;;;;;;7.88;6.72;;;6.50;99.90;;;;;;5348596;26;20036;-80
2024/04/19 03:32:23;;;;;;;8.82;7.32;;;6.50;99.90;;;;;;5350880;26;20011;-80
2024/04/19 03:34:49;;;;;;;9.00;7.50;;;6.60;99.90;;;;;;5352912;26;20008;-81
2024/04/19 03:37:15;;;;;;;9.85;8.48;;;6.60;99.90;;;;;;5346082;26;20005;-81
2024/04/19 03:39:41;;;;;;;10.88;9.02;;;6.70;99.90;;;;;;5322080;26;20369;-81
2024/04/19 03:42:20;;;;;;;13.63;10.95;;;6.70;99.90;;;;;;5326447;26;20005;-81
2024/04/19 03:47:30;;;;;;;21.00;11.57;;;6.80;99.90;;;;;;5352461;26;20016;-81
2024/04/19 03:49:56;;;;;;;14.52;10.63;;;6.90;99.90;;;;;;5321339;26;20005;-80
2024/04/19 03:52:21;;;;;;;12.93;10.30;;;6.90;99.90;;;;;;5352039;26;20001;-80
2024/04/19 03:54:47;;;;;;;16.10;12.35;;;7.00;99.90;;;;;;5317519;26;19996;-80
2024/04/19 03:57:13;;;;;;;12.32;10.57;;;7.00;99.90;;;;;;5321111;26;20431;-81
2024/04/19 03:59:39;;;;;;;15.15;12.77;;;7.00;99.90;;;;;;5347327;26;19997;-79
2024/04/19 04:02:05;;;;;;;11.10;9.57;;;7.00;99.90;;;;;;5348455;26;20028;-81
2024/04/19 04:04:31;;;;;;;12.38;10.63;;;7.10;99.90;;;;;;5349272;26;20333;-80
2024/04/19 04:06:58;;;;;;;11.63;9.82;;;7.10;99.90;;;;;;5348946;26;20000;-80
2024/04/19 04:09:24;;;;;;;13.80;11.90;;;7.20;99.90;;;;;;5318396;26;20012;-80
2024/04/19 04:11:50;;;;;;;13.25;11.68;;;7.10;99.90;;;;;;5339812;26;20450;-81
2024/04/19 04:14:15;;;;;;;13.20;11.18;;;7.20;99.90;;;;;;5347597;26;20036;-80
2024/04/19 04:16:41;;;;;;;12.13;10.40;;;7.20;99.90;;;;;;5316914;26;20005;-81
2024/04/19 04:19:07;;;;;;;13.23;11.48;;;7.20;99.90;;;;;;5316936;26;20000;-82
2024/04/19 04:21:33;;;;;;;13.80;11.85;;;7.30;99.90;;;;;;5347551;26;20086;-81
2024/04/19 04:27:36;;;;;;;13.88;11.90;;;7.40;99.90;;;;;;5302559;26;20342;-81
2024/04/19 04:30:43;;;;;;;16.75;12.95;;;7.40;99.90;;;;;;5344305;26;20012;-80
2024/04/19 04:33:23;;;;;;;14.70;12.18;;;7.50;99.90;;;;;;5174890;27;20004;-79
2024/04/19 04:39:35;;;;;;;15.35;12.43;;;7.60;99.90;;;;;;5035581;28;20022;-81
2024/04/19 04:42:15;;;;;;;19.05;15.95;;;7.70;99.90;;;;;;5031818;28;20057;-81
2024/04/19 04:48:08;;;;;;;23.42;18.60;;;7.80;99.90;;;;;;5017062;28;20085;-79
2024/04/19 04:51:09;;;;;;;20.98;17.40;;;7.90;99.90;;;;;;5017331;28;20464;-81
2024/04/19 04:56:47;;;;;;;25.05;18.50;;;7.90;99.90;;;;;;4965898;28;20027;-79
2024/04/19 04:59:13;;;;;;;23.80;18.05;;;8.00;99.90;;;;;;4999694;28;20131;-79
2024/04/19 05:01:38;;;;;;;24.42;18.05;;;8.10;99.90;;;;;;5003603;28;20016;-79
2024/04/19 05:04:04;;;;;;;20.92;17.13;;;8.10;99.90;;;;;;5015950;28;20058;-79
2024/04/19 05:06:30;;;;;;;28.98;19.17;;;8.20;99.90;;;;;;5005025;28;20014;-79
2024/04/19 05:08:56;;;;;;;21.90;16.70;;;8.20;99.90;;;;;;5055134;28;20071;-79
2024/04/19 05:11:21;;;;;;;20.17;16.02;;;8.30;99.90;;;;;;5110298;28;20005;-80
2024/04/19 05:13:47;;;;;;;18.80;16.05;;;8.30;99.90;;;;;;5114588;28;20013;-80
2024/04/19 05:16:13;;;;;;;18.88;16.10;;;8.30;99.90;;;;;;5180692;27;20021;-79
2024/04/19 05:18:57;;;;;;;17.42;14.07;;;8.30;99.90;;;;;;5209685;27;20012;-80
2024/04/19 05:21:28;;;;;;;21.35;15.73;;;8.30;99.90;;;;;;5181463;27;20139;-80
2024/04/19 05:24:02;;;;;;;22.30;14.98;;;8.40;99.90;;;;;;5235626;26;20342;-79
2024/04/19 05:26:27;;;;;;;21.25;16.45;;;8.40;99.90;;;;;;5316157;26;20009;-80
2024/04/19 05:28:53;;;;;;;19.30;14.70;;;8.50;99.90;;;;;;5346715;26;20343;-79
2024/04/19 05:31:19;;;;;;;21.52;15.40;;;8.50;99.90;;;;;;5347269;26;20001;-80
2024/04/19 05:33:45;;;;;;;21.65;16.45;;;8.50;99.90;;;;;;5351869;26;20008;-81
2024/04/19 05:36:11;;;;;;;22.25;16.30;;;8.60;99.90;;;;;;5346796;26;20074;-79
2024/04/19 05:38:37;;;;;;;22.00;16.00;;;8.60;99.90;;;;;;5338193;26;19997;-79
2024/04/19 05:41:02;;;;;;;21.63;16.83;;;8.60;99.90;;;;;;5346432;26;19997;-80
2024/04/19 05:43:28;;;;;;;20.45;15.63;;;8.70;99.90;;;;;;5346575;26;20007;-81
2024/04/19 05:45:54;;;;;;;23.15;17.83;;;8.70;99.90;;;;;;5346516;26;19997;-79
2024/04/19 05:48:20;;;;;;;21.98;17.00;;;8.80;99.90;;;;;;5346228;26;20009;-80
2024/04/19 05:50:46;;;;;;;23.63;17.17;;;8.90;99.90;;;;;;5314736;26;20005;-80
2024/04/19 05:53:12;;;;;;;24.25;18.30;;;8.90;99.90;;;;;;5346064;26;20001;-81
2024/04/19 05:55:37;;;;;;;22.20;17.55;;;9.00;99.90;;;;;;5337189;26;20080;-78
2024/04/19 05:58:03;;;;;;;26.60;18.77;;;9.00;99.90;;;;;;5346449;26;20050;-80
2024/04/19 06:00:30;;;;;;;27.73;19.52;;;9.00;99.90;;;;;;5315265;26;20001;-81
2024/04/19 06:02:55;;;;;;;27.70;20.42;;;9.10;99.90;;;;;;5346211;26;20001;-83
2024/04/19 06:05:21;;;;;;;27.13;21.50;;;9.10;99.90;;;;;;5347636;26;20014;-82
2024/04/19 06:07:47;;;;;;;27.48;18.45;;;9.00;99.90;;;;;;5346588;26;20008;-81
2024/04/19 06:10:13;;;;;;;32.05;20.23;;;9.00;99.90;;;;;;5288479;26;20476;-80
2024/04/19 06:12:39;;;;;;;28.75;20.40;;;9.10;99.90;;;;;;5342709;26;20013;-81
2024/04/19 06:15:05;;;;;;;34.55;23.88;;;9.10;99.90;;;;;;5316372;26;20013;-82
2024/04/19 06:17:31;;;;;;;32.15;21.60;;;9.10;99.90;;;;;;5346627;26;20016;-80
2024/04/19 06:19:56;;;;;;;35.65;22.48;;;9.20;99.90;;;;;;5314010;26;20334;-81
2024/04/19 06:22:22;;;;;;;35.83;23.75;;;9.20;99.90;;;;;;5344597;26;20020;-81
2024/04/19 06:24:48;;;;;;;34.58;24.10;;;9.30;99.90;;;;;;5314762;26;20528;-81
2024/04/19 06:27:14;;;;;;;35.13;24.58;;;9.40;99.90;;;;;;5314799;26;20005;-80
2024/04/19 06:29:39;;;;;;;42.10;25.63;;;9.40;99.90;;;;;;5345916;26;20005;-80
2024/04/19 06:32:06;;;;;;;36.65;25.05;;;9.50;99.90;;;;;;5344636;26;20017;-81
2024/04/19 06:34:32;;;;;;;41.00;26.58;;;9.50;99.90;;;;;;5345855;26;20004;-83
2024/04/19 06:36:57;;;;;;;45.40;27.67;;;9.60;99.90;;;;;;5345734;26;20020;-83
2024/04/19 06:39:26;;;;;;;42.58;28.38;;;9.70;99.90;;;;;;5346875;26;20403;-82
2024/04/19 06:41:52;;;;;;;46.67;28.75;;;9.70;99.90;;;;;;5345291;26;20005;-82
2024/04/19 06:44:18;;;;;;;40.77;28.63;;;9.80;99.90;;;;;;5314375;26;20005;-82
2024/04/19 06:46:44;;;;;;;45.13;33.47;;;9.80;99.90;;;;;;5346665;26;20015;-82
2024/04/19 06:49:10;;;;;;;45.15;33.30;;;9.90;99.90;;;;;;5348660;26;20001;-81
2024/04/19 06:51:37;;;;;;;49.40;31.65;;;9.90;99.90;;;;;;5346027;26;20001;-82
2024/04/19 06:54:03;;;;;;;49.60;32.33;;;9.90;99.90;;;;;;5345509;26;20001;-83
2024/04/19 06:56:29;;;;;;;57.17;35.50;;;9.90;99.90;;;;;;5344522;26;20020;-81
2024/04/19 06:58:55;;;;;;;59.70;36.28;;;10.00;99.90;;;;;;5313619;26;20053;-80
2024/04/19 07:01:21;;;;;;;59.35;38.47;;;10.10;99.90;;;;;;5344961;26;20015;-78
2024/04/19 07:03:47;;;;;;;58.10;39.43;;;10.10;99.90;;;;;;5345063;26;20016;-80
2024/04/19 07:06:14;;;;;;;55.05;39.65;;;10.20;99.90;;;;;;5344220;26;20012;-81
2024/04/19 07:08:43;;;;;;;51.85;35.83;;;10.30;99.90;;;;;;5343974;26;20005;-80
2024/04/19 07:11:09;;;;;;;53.45;37.28;;;10.30;99.90;;;;;;5344552;26;20019;-80
2024/04/19 07:13:36;;;;;;;46.58;36.80;;;10.50;99.90;;;;;;5345516;26;20011;-79
2024/04/19 07:16:02;;;;;;;53.03;36.03;;;10.70;99.90;;;;;;5342861;26;19997;-80
2024/04/19 07:18:28;;;;;;;46.30;34.30;;;10.90;99.90;;;;;;5344386;26;20047;-80
2024/04/19 07:20:54;;;;;;;39.22;32.42;;;11.00;99.90;;;;;;5313710;26;19996;-80
2024/04/19 07:23:22;;;;;;;46.95;34.15;;;11.00;99.90;;;;;;5343771;26;20008;-81
2024/04/19 07:25:48;;;;;;;48.15;34.45;;;11.10;99.90;;;;;;5344934;26;20005;-82
2024/04/19 07:28:15;;;;;;;50.80;35.20;;;11.20;99.90;;;;;;5344547;26;20012;-80
2024/04/19 07:30:42;;;;;;;46.03;32.90;;;11.20;99.90;;;;;;5345060;26;20015;-80
2024/04/19 07:33:08;;;;;;;48.00;36.03;;;11.20;99.90;;;;;;5344063;26;20001;-80
2024/04/19 07:35:34;;;;;;;49.50;34.17;;;11.20;99.90;;;;;;5349356;26;20041;-82
2024/04/19 07:38:00;;;;;;;42.33;34.08;;;11.50;99.90;;;;;;5349811;26;20469;-83
2024/04/19 07:40:26;;;;;;;42.88;33.90;;;11.90;99.90;;;;;;5318437;26;20000;-80
2024/04/19 07:42:54;;;;;;;52.05;34.35;;;12.30;99.90;;;;;;5349407;26;20013;-81
2024/04/19 07:45:22;;;;;;;42.08;31.55;;;12.70;99.90;;;;;;5348903;26;20005;-82
2024/04/19 07:47:52;;;;;;;49.88;37.33;;;13.20;99.90;;;;;;5354240;26;20033;-81
2024/04/19 07:50:18;;;;;;;39.47;29.35;;;14.00;99.90;;;;;;5347864;26;20011;-83
2024/04/19 07:52:48;;;;;;;39.42;28.63;;;14.50;99.90;;;;;;5349593;26;20094;-80
2024/04/19 07:55:17;;;;;;;40.95;27.77;;;14.60;99.90;;;;;;5347578;26;20001;-82
2024/04/19 07:57:47;;;;;;;33.30;26.27;;;14.40;99.90;;;;;;5347386;26;20016;-82
2024/04/19 08:00:17;;;;;;;39.30;29.52;;;14.40;99.90;;;;;;5348188;26;19997;-83
2024/04/19 08:02:43;;;;;;;35.05;28.63;;;14.30;99.90;;;;;;5347733;26;20078;-82
2024/04/19 08:05:10;;;;;;;51.03;34.40;;;14.30;99.90;;;;;;5347866;26;20331;-82
2024/04/19 08:07:35;;;;;;;36.72;28.67;;;14.30;99.90;;;;;;5347192;26;20005;-82
2024/04/19 08:10:03;;;;;;;47.13;34.88;;;14.40;99.90;;;;;;5347803;26;20015;-82
2024/04/19 08:12:29;;;;;;;35.42;27.95;;;14.50;99.90;;;;;;5347481;26;20015;-84
2024/04/19 08:14:54;;;;;;;37.05;29.27;;;15.10;99.90;;;;;;5338545;26;20078;-81
2024/04/19 08:17:20;;;;;;;39.42;28.58;;;16.10;99.90;;;;;;5348569;26;20462;-83
2024/04/19 08:19:47;;;;;;;34.15;22.98;;;16.80;99.90;;;;;;5349085;26;20033;-83
2024/04/19 08:22:13;;;;;;;34.35;25.55;;;17.90;99.90;;;;;;5351512;26;20346;-85
2024/04/19 08:24:41;;;;;;;31.83;26.38;;;17.70;99.90;;;;;;5320009;26;20001;-86
2024/04/19 08:27:07;;;;;;;36.40;27.83;;;17.30;99.90;;;;;;5352458;26;20016;-87
2024/04/19 08:29:33;;;;;;;35.70;29.17;;;17.00;99.90;;;;;;5352403;26;20008;-88
2024/04/19 08:31:59;;;;;;;35.20;28.67;;;16.60;99.90;;;;;;5351092;26;20001;-86
2024/04/19 08:34:25;;;;;;;33.53;26.30;;;16.10;99.90;;;;;;5350347;26;20040;-86
2024/04/19 08:36:51;;;;;;;33.88;24.88;;;15.70;99.90;;;;;;5318949;26;20011;-87
2024/04/19 08:39:16;;;;;;;22.42;14.23;;;15.70;99.90;;;;;;5349751;26;20005;-86
2024/04/19 08:41:47;;;;;;;18.48;12.40;;;15.70;99.90;;;;;;5349511;26;20052;-86
2024/04/19 08:44:13;;;;;;;15.27;8.27;;;15.80;99.90;;;;;;5348961;26;20356;-86
2024/04/19 08:46:40;;;;;;;10.60;7.22;;;15.80;99.90;;;;;;5349424;26;20016;-86
2024/04/19 08:49:08;;;;;;;10.40;6.68;;;16.20;99.10;;;;;;5349391;26;20341;-84
2024/04/19 08:51:38;;;;;;;11.15;7.63;;;16.50;97.50;;;;;;5347047;26;20090;-85
2024/04/19 08:54:05;;;;;;;10.07;6.93;;;16.20;97.40;;;;;;5324490;26;20086;-85
2024/04/19 08:56:31;;;;;;;8.30;5.20;;;16.30;97.30;;;;;;5347954;26;20016;-84
2024/04/19 08:58:58;;;;;;;9.88;5.97;;;16.30;96.30;;;;;;5345105;26;19997;-83
2024/04/19 09:01:24;;;;;;;;;;;16.40;96.10;;;;;;5346014;26;20073;-82
2024/04/19 09:03:50;;;;;;;3.80;2.47;;;16.50;95.30;;;;;;5315712;26;19941;-83
2024/04/19 09:06:16;;;;;;;9.90;3.42;;;16.30;92.90;;;;;;5316304;26;20086;-83
2024/04/19 09:08:42;;;;;;;5.30;3.25;;;16.20;92.50;;;;;;5346631;26;20016;-84
2024/04/19 09:11:16;;;;;;;4.67;2.60;;;16.20;92.40;;;;;;5317144;26;20001;-81
2024/04/19 09:13:43;;;;;;;8.10;3.92;;;16.40;92.20;;;;;;5348126;26;20017;-82
2024/04/19 09:16:09;;;;;;;;;;;16.80;91.80;;;;;;5347411;26;20013;-84
2024/04/19 09:18:35;;;;;;;7.47;4.57;;;16.90;91.70;;;;;;5346275;26;19993;-82
2024/04/19 09:21:01;;;;;;;4.70;3.20;;;16.50;90.80;;;;;;5346573;26;20001;-82
2024/04/19 09:23:27;;;;;;;6.28;3.60;;;16.00;90.10;;;;;;5347059;26;20342;-81
2024/04/19 09:25:55;;;;;;;5.68;3.30;;;15.60;90.60;;;;;;5347356;26;20422;-81
2024/04/19 09:28:22;;;;;;;4.55;3.20;;;16.00;90.80;;;;;;5347005;26;20140;-81
2024/04/19 09:30:57;;;;;;;6.00;2.58;;;16.00;90.00;;;;;;5346854;26;20001;-83
2024/04/19 09:33:24;;;;;;;4.78;2.47;;;15.80;90.10;;;;;;5350966;26;20000;-82
2024/04/19 09:35:51;;;;;;;3.40;2.88;;;15.70;90.10;;;;;;5318010;26;20004;-84
2024/04/19 09:38:19;;;;;;;5.93;2.75;;;15.50;90.60;;;;;;5350127;26;20008;-83
2024/04/19 09:40:46;;;;;;;4.32;2.67;;;15.30;90.90;;;;;;5335652;26;20363;-85
2024/04/19 09:43:17;;;;;;;7.07;2.87;;;15.20;91.00;;;;;;5347266;26;20004;-83
2024/04/19 09:45:44;;;;;;;3.55;2.05;;;15.30;91.30;;;;;;5348045;26;20012;-84
2024/04/19 09:48:10;;;;;;;24.98;2.38;;;15.20;90.60;;;;;;5316734;26;20016;-84
2024/04/19 09:50:39;;;;;;;1.65;1.42;;;15.10;90.40;;;;;;5348607;26;20008;-85
2024/04/19 09:53:10;;;;;;;4.85;2.45;;;15.00;90.50;;;;;;5348121;26;20001;-84
2024/04/19 09:56:12;;;;;;;3.08;1.95;;;15.00;90.80;;;;;;5352143;26;20040;-85
2024/04/19 09:58:38;;;;;;;7.60;2.47;;;15.10;90.60;;;;;;5352626;26;20025;-84
2024/04/19 10:01:05;;;;;;;2.92;1.77;;;15.00;90.50;;;;;;5355847;26;20001;-79
2024/04/19 10:03:31;;;;;;;1.58;1.33;;;14.90;88.20;;;;;;5356849;26;20450;-83
2024/04/19 10:05:58;;;;;;;3.10;1.77;;;14.70;86.80;;;;;;5345819;26;20345;-82
2024/04/19 10:08:24;;;;;;;1.00;0.88;;;14.70;87.60;;;;;;5347588;26;20345;-82
2024/04/19 10:10:51;;;;;;;5.60;1.83;;;15.20;85.50;;;;;;5346328;26;20081;-83
2024/04/19 10:13:18;;;;;;;4.35;2.17;;;15.90;83.00;;;;;;5321216;26;20079;-84
2024/04/19 10:15:46;;;;;;;1.60;0.52;;;16.60;80.90;;;;;;5350720;26;19997;-84
2024/04/19 10:18:12;;;;;;;3.33;1.20;;;17.30;74.30;;;;;;5324548;26;20074;-85
2024/04/19 10:20:40;;;;;;;1.42;0.80;;;16.60;75.40;;;;;;5357764;26;20128;-86
2024/04/19 10:23:06;;;;;;;5.88;1.65;;;16.30;74.60;;;;;;5349700;26;20480;-85
2024/04/19 10:25:38;;;;;;;1.98;1.20;;;16.30;76.10;;;;;;5346564;26;20001;-84
2024/04/19 10:28:10;;;;;;;1.20;0.80;;;16.30;75.90;;;;;;5347611;26;20020;-84
2024/04/19 10:30:37;;;;;;;1.98;1.00;;;16.00;75.80;;;;;;5347024;26;20001;-84
2024/04/19 10:33:03;;;;;;;5.72;1.20;;;15.90;76.40;;;;;;5348148;26;20315;-83
2024/04/19 10:35:45;;;;;;;4.27;1.30;;;16.10;76.60;;;;;;5315571;26;20004;-83
2024/04/19 10:38:12;;;;;;;4.72;1.98;;;16.10;76.50;;;;;;5345126;26;20078;-84
2024/04/19 10:40:38;;;;;;;2.10;1.27;;;16.10;76.30;;;;;;5346281;26;20409;-87
2024/04/19 10:43:07;;;;;;;2.92;1.10;;;16.10;75.60;;;;;;5347888;26;20016;-85
2024/04/19 10:45:34;;;;;;;1.95;1.38;;;16.10;74.50;;;;;;5333779;26;20005;-86
2024/04/19 10:48:01;;;;;;;0.70;0.60;;;15.90;74.10;;;;;;5351728;26;20005;-90
2024/04/19 10:50:30;;;;;;;1.73;1.00;;;15.70;74.20;;;;;;5347290;26;20304;-83
2024/04/19 10:52:57;;;;;;;3.90;1.35;;;15.70;74.20;;;;;;5345978;26;20070;-84
2024/04/19 10:55:27;;;;;;;2.58;1.00;;;15.80;72.80;;;;;;5346069;26;20001;-82
2024/04/19 10:57:53;;;;;;;3.10;1.08;;;15.80;72.50;;;;;;5301799;26;20013;-82
2024/04/19 11:00:19;;;;;;;2.20;0.85;;;15.80;72.40;;;;;;5345964;26;20017;-82
2024/04/19 11:02:45;;;;;;;3.78;1.13;;;15.80;72.20;;;;;;5345668;26;20000;-81
2024/04/19 11:05:11;;;;;;;5.45;1.17;;;15.70;72.60;;;;;;5345100;26;20045;-82
2024/04/19 11:07:38;;;;;;;1.60;0.85;;;15.70;72.20;;;;;;5338708;26;20011;-85
2024/04/19 11:10:05;;;;;;;3.80;1.13;;;15.60;73.30;;;;;;5351146;26;20001;-84
2024/04/19 11:12:31;;;;;;;5.18;0.73;;;15.50;73.10;;;;;;5310256;26;20052;-82
2024/04/19 11:15:01;;;;;;;2.47;0.90;;;15.50;72.60;;;;;;5350491;26;20008;-83
2024/04/19 11:17:30;;;;;;;3.85;1.40;;;15.50;72.90;;;;;;5351127;26;20009;-82
2024/04/19 11:20:03;;;;;;;3.15;1.05;;;15.40;73.80;;;;;;5321394;26;20000;-86
2024/04/19 11:22:29;;;;;;;1.50;0.70;;;15.40;74.10;;;;;;5353131;26;20001;-85
2024/04/19 11:24:54;;;;;;;3.67;0.93;;;15.40;73.80;;;;;;5349839;26;20011;-85
2024/04/19 11:27:20;;;;;;;1.95;1.20;;;15.20;73.50;;;;;;5348927;26;20020;-83
2024/04/19 11:29:46;;;;;;;0.65;0.30;;;15.00;74.90;;;;;;5318915;26;20016;-85
2024/04/19 11:32:13;;;;;;;1.70;0.40;;;15.10;75.10;;;;;;5319068;26;20005;-88
2024/04/19 11:34:44;;;;;;;2.83;1.25;;;15.20;74.40;;;;;;5319208;26;20052;-82
2024/04/19 11:37:14;;;;;;;3.90;0.60;;;15.30;73.60;;;;;;5331260;26;20013;-84
2024/04/19 11:39:40;;;;;;;3.58;1.00;;;15.40;71.80;;;;;;5350578;26;20005;-86
2024/04/19 11:42:06;;;;;;;4.65;0.88;;;15.50;72.80;;;;;;5348320;26;20287;-85
2024/04/19 11:44:32;;;;;;;2.28;1.27;;;15.60;71.70;;;;;;5348277;26;20005;-85
2024/04/19 11:47:04;;;;;;;2.50;0.85;;;15.60;71.60;;;;;;5332766;26;20415;-86
2024/04/19 11:49:30;;;;;;;5.60;1.48;;;15.60;70.80;;;;;;5350384;26;20343;-84
2024/04/19 11:51:56;;;;;;;4.68;1.50;;;15.40;70.00;;;;;;5349700;26;20009;-87
2024/04/19 11:54:27;;;;;;;4.68;1.60;;;15.30;69.00;;;;;;5349153;26;20463;-89
2024/04/19 11:56:55;;;;;;;6.82;1.38;;;15.10;67.80;;;;;;5349375;26;20079;-86
2024/04/19 11:59:21;;;;;;;1.50;0.90;;;15.00;67.40;;;;;;5353909;26;20492;-85
2024/04/19 12:01:47;;;;;;;5.97;1.50;;;15.00;66.70;;;;;;5351087;26;20013;-85
2024/04/19 12:04:13;;;;;;;1.73;1.10;;;14.90;66.20;;;;;;5318182;26;20001;-85
2024/04/19 12:06:39;;;;;;;2.97;1.25;;;14.90;66.30;;;;;;5319644;26;20019;-86
2024/04/19 12:09:05;;;;;;;4.00;1.55;;;14.80;64.90;;;;;;5350445;26;20016;-86
2024/04/19 12:11:33;;;;;;;3.28;1.15;;;14.70;64.70;;;;;;5312331;26;20011;-88
2024/04/19 12:13:59;;;;;;;3.97;1.15;;;14.60;65.20;;;;;;5348549;26;20001;-85
2024/04/19 12:16:25;;;;;;;4.78;1.52;;;14.70;64.60;;;;;;5348556;26;20511;-85
2024/04/19 12:18:51;;;;;;;6.97;1.38;;;14.70;64.60;;;;;;5348924;26;20315;-86
2024/04/19 12:21:17;;;;;;;3.85;1.73;;;14.70;64.00;;;;;;5359320;26;20001;-86
2024/04/19 12:23:45;;;;;;;3.58;1.95;;;14.50;63.70;;;;;;5351241;26;20036;-85
2024/04/19 12:26:13;;;;;;;1.67;1.42;;;14.40;65.10;;;;;;5350969;26;20004;-85
2024/04/19 12:28:39;;;;;;;3.22;1.30;;;14.40;65.20;;;;;;5351720;26;20011;-84
2024/04/19 12:31:05;;;;;;;3.92;1.10;;;14.40;65.40;;;;;;5349672;26;20423;-83
2024/04/19 12:33:31;;;;;;;5.10;1.23;;;14.40;65.10;;;;;;5348286;26;20005;-84
2024/04/19 12:35:56;;;;;;;3.35;1.58;;;14.40;66.10;;;;;;5347926;26;20424;-84
2024/04/19 12:38:22;;;;;;;7.45;3.67;;;14.40;65.60;;;;;;5347984;26;20125;-84
2024/04/19 12:40:48;;;;;;;3.80;2.22;;;14.40;66.30;;;;;;5347812;26;20015;-82
2024/04/19 12:43:14;;;;;;;2.25;1.23;;;14.30;66.10;;;;;;5349486;26;20015;-83
2024/04/19 12:45:41;;;;;;;2.72;1.35;;;14.30;66.20;;;;;;5350697;26;20075;-88
2024/04/19 12:48:08;;;;;;;1.77;1.40;;;14.30;66.80;;;;;;5326226;26;20011;-84
2024/04/19 12:50:34;;;;;;;2.40;1.40;;;14.40;66.60;;;;;;5317686;26;20412;-82
2024/04/19 12:53:01;;;;;;;4.00;2.13;;;14.50;67.40;;;;;;5348173;26;20012;-83
2024/04/19 12:55:27;;;;;;;1.90;1.23;;;14.60;66.90;;;;;;5355663;26;20033;-84
2024/04/19 12:57:56;;;;;;;1.38;1.15;;;14.70;66.90;;;;;;5350127;26;20015;-87
2024/04/19 13:00:22;;;;;;;2.42;1.20;;;14.60;67.20;;;;;;5317056;26;20338;-85
2024/04/19 13:02:48;;;;;;;4.75;1.45;;;14.60;67.10;;;;;;5319532;26;20083;-87